createdAt,value
2022-09-02T00:02:25.110Z,101314.22
2022-09-02T00:04:52.107Z,101318.00
2022-09-02T00:07:19.008Z,101311.31
2022-09-02T00:09:45.940Z,101318.72
2022-09-02T00:12:12.983Z,101305.06
2022-09-02T00:14:40.201Z,101306.50
2022-09-02T00:17:07.173Z,101314.03
2022-09-02T00:19:35.042Z,101308.28
2022-09-02T00:22:03.480Z,101310.66
2022-09-02T00:24:31.455Z,101306.09
2022-09-02T00:26:58.606Z,101299.00
2022-09-02T00:29:27.679Z,101308.47
2022-09-02T00:31:55.086Z,101309.91
2022-09-02T00:34:22.358Z,101296.84
2022-09-02T00:36:49.421Z,101296.34
2022-09-02T00:39:17.159Z,101296.19
2022-09-02T00:41:44.917Z,101296.75
2022-09-02T00:44:16.913Z,101287.09
2022-09-02T00:46:44.775Z,101299.53
2022-09-02T00:49:27.526Z,101295.69
2022-09-02T00:52:08.356Z,101298.19
2022-09-02T00:54:41.851Z,101293.66
2022-09-02T00:57:13.568Z,101296.69
2022-09-02T01:00:13.885Z,101300.00
2022-09-02T01:02:42.673Z,101291.09
2022-09-02T01:05:13.406Z,101289.31
2022-09-02T01:07:40.816Z,101293.25
2022-09-02T01:10:13.749Z,101284.69
2022-09-02T01:12:41.242Z,101291.91
2022-09-02T01:15:11.790Z,101287.97
2022-09-02T01:17:47.743Z,101288.16
2022-09-02T01:20:21.201Z,101288.63
2022-09-02T01:22:54.836Z,101279.13
2022-09-02T01:25:27.397Z,101289.09
2022-09-02T01:28:01.038Z,101290.00
2022-09-02T01:30:29.088Z,101274.19
2022-09-02T01:32:56.243Z,101292.19
2022-09-02T01:35:23.522Z,101286.13
2022-09-02T01:37:56.019Z,101275.34
2022-09-02T01:40:24.480Z,101278.72
2022-09-02T01:42:59.739Z,101282.22
2022-09-02T01:45:26.832Z,101264.41
2022-09-02T01:47:53.836Z,101271.69
2022-09-02T01:50:21.553Z,101270.72
2022-09-02T01:52:48.502Z,101268.53
2022-09-02T01:55:15.408Z,101270.97
2022-09-02T01:57:42.390Z,101269.19
2022-09-02T02:00:11.970Z,101260.09
2022-09-02T02:02:39.386Z,101266.28
2022-09-02T02:05:07.225Z,101266.97
2022-09-02T02:07:34.353Z,101263.66
2022-09-02T02:10:01.284Z,101266.59
2022-09-02T02:12:28.435Z,101266.75
2022-09-02T02:14:55.343Z,101262.81
2022-09-02T02:17:23.121Z,101260.34
2022-09-02T02:19:50.088Z,101263.38
2022-09-02T02:22:17.477Z,101261.31
2022-09-02T02:24:44.469Z,101253.97
2022-09-02T02:27:11.602Z,101268.28
2022-09-02T02:29:38.600Z,101269.13
2022-09-02T02:32:07.475Z,101263.44
2022-09-02T02:34:35.247Z,101258.16
2022-09-02T02:37:02.349Z,101266.28
2022-09-02T02:39:29.263Z,101257.59
2022-09-02T02:41:56.240Z,101255.41
2022-09-02T02:44:23.934Z,101260.69
2022-09-02T02:46:50.992Z,101262.47
2022-09-02T02:49:18.052Z,101263.16
2022-09-02T02:51:47.868Z,101270.38
2022-09-02T02:54:14.978Z,101269.53
2022-09-02T02:56:42.457Z,101268.91
2022-09-02T02:59:09.554Z,101268.25
2022-09-02T03:01:36.568Z,101266.63
2022-09-02T03:04:04.657Z,101270.06
2022-09-02T03:06:31.692Z,101266.38
2022-09-02T03:09:00.627Z,101269.34
2022-09-02T03:11:28.508Z,101254.47
2022-09-02T03:13:55.968Z,101257.31
2022-09-02T03:16:23.378Z,101257.59
2022-09-02T03:18:51.304Z,101262.94
2022-09-02T03:21:19.204Z,101266.19
2022-09-02T03:23:47.379Z,101249.50
2022-09-02T03:26:21.053Z,101255.97
2022-09-02T03:28:49.405Z,101255.88
2022-09-02T03:31:21.471Z,101256.38
2022-09-02T03:33:48.434Z,101247.09
2022-09-02T03:36:31.950Z,101236.13
2022-09-02T03:38:59.105Z,101240.84
2022-09-02T03:41:26.469Z,101234.16
2022-09-02T03:43:53.436Z,101235.34
2022-09-02T03:46:20.603Z,101229.31
2022-09-02T03:48:49.156Z,101234.34
2022-09-02T03:51:16.206Z,101230.59
2022-09-02T03:53:43.124Z,101230.59
2022-09-02T03:56:13.188Z,101233.72
2022-09-02T03:58:44.274Z,101224.03
2022-09-02T04:01:21.085Z,101223.94
2022-09-02T04:03:48.346Z,101222.72
2022-09-02T04:06:17.435Z,101221.03
2022-09-02T04:08:45.133Z,101216.63
2022-09-02T04:11:17.803Z,101213.22
2022-09-02T04:13:46.764Z,101214.34
2022-09-02T04:16:19.566Z,101211.84
2022-09-02T04:18:46.972Z,101209.63
2022-09-02T04:21:14.689Z,101207.69
2022-09-02T04:23:41.765Z,101202.78
2022-09-02T04:26:13.641Z,101202.84
2022-09-02T04:28:41.308Z,101199.59
2022-09-02T04:31:12.008Z,101205.91
2022-09-02T04:33:39.805Z,101199.59
2022-09-02T04:36:10.040Z,101202.34
2022-09-02T04:38:40.352Z,101207.91
2022-09-02T04:41:14.673Z,101193.50
2022-09-02T04:43:42.253Z,101206.16
2022-09-02T04:46:13.676Z,101202.50
2022-09-02T04:48:44.312Z,101192.72
2022-09-02T04:51:16.584Z,101191.38
2022-09-02T04:53:45.754Z,101195.06
2022-09-02T04:56:17.151Z,101212.78
2022-09-02T04:58:44.623Z,101217.03
2022-09-02T05:01:16.899Z,101208.47
2022-09-02T05:03:45.507Z,101215.66
2022-09-02T05:06:18.975Z,101208.53
2022-09-02T05:08:48.340Z,101206.09
2022-09-02T05:11:20.538Z,101200.59
2022-09-02T05:13:51.578Z,101200.00
2022-09-02T05:16:22.806Z,101207.00
2022-09-02T05:18:51.888Z,101210.78
2022-09-02T05:21:19.819Z,101210.81
2022-09-02T05:23:47.053Z,101207.25
2022-09-02T05:26:14.242Z,101215.19
2022-09-02T05:28:42.949Z,101210.44
2022-09-02T05:31:13.804Z,101220.59
2022-09-02T05:33:42.222Z,101209.72
2022-09-02T05:36:14.441Z,101220.41
2022-09-02T05:38:43.456Z,101221.75
2022-09-02T05:41:18.227Z,101214.50
2022-09-02T05:43:45.973Z,101213.50
2022-09-02T05:46:21.152Z,101205.00
2022-09-02T05:49:18.587Z,101195.69
2022-09-02T05:51:55.721Z,101203.38
2022-09-02T05:54:30.227Z,101206.34
2022-09-02T05:57:01.728Z,101207.63
2022-09-02T05:59:30.867Z,101215.22
2022-09-02T06:01:59.800Z,101216.72
2022-09-02T06:04:26.876Z,101215.13
2022-09-02T06:06:53.881Z,101206.88
2022-09-02T06:09:24.230Z,101207.03
2022-09-02T06:11:52.176Z,101206.22
2022-09-02T06:14:25.373Z,101207.78
2022-09-02T06:16:54.977Z,101204.22
2022-09-02T06:19:28.910Z,101194.75
2022-09-02T06:21:57.340Z,101189.22
2022-09-02T06:24:25.098Z,101198.09
2022-09-02T06:26:55.611Z,101175.59
2022-09-02T06:29:25.615Z,101176.03
2022-09-02T06:31:52.998Z,101173.16
2022-09-02T06:34:22.690Z,101177.19
2022-09-02T06:36:50.767Z,101155.53
2022-09-02T06:39:21.730Z,101158.72
2022-09-02T06:41:49.441Z,101164.09
2022-09-02T06:44:18.406Z,101161.31
2022-09-02T06:46:54.416Z,101161.84
2022-09-02T06:49:23.070Z,101154.50
2022-09-02T06:51:52.256Z,101154.34
2022-09-02T06:54:21.800Z,101164.88
2022-09-02T06:56:51.045Z,101158.00
2022-09-02T06:59:20.568Z,101163.13
2022-09-02T07:01:48.783Z,101149.84
2022-09-02T07:04:35.812Z,101150.72
2022-09-02T07:07:06.302Z,101145.03
2022-09-02T07:09:33.516Z,101136.84
2022-09-02T07:12:05.137Z,101134.25
2022-09-02T07:14:41.457Z,101132.03
2022-09-02T07:17:10.691Z,101136.84
2022-09-02T07:19:38.091Z,101130.28
2022-09-02T07:22:08.707Z,101118.09
2022-09-02T07:24:37.635Z,101115.84
2022-09-02T07:27:05.913Z,101116.66
2022-09-02T07:29:34.335Z,101124.63
2022-09-02T07:32:02.188Z,101114.66
2022-09-02T07:34:29.338Z,101113.84
2022-09-02T07:37:00.236Z,101110.66
2022-09-02T07:39:30.359Z,101117.09
2022-09-02T07:41:57.316Z,101125.06
2022-09-02T07:44:24.959Z,101122.44
2022-09-02T07:46:52.511Z,101118.53
2022-09-02T07:49:23.973Z,101123.22
2022-09-02T07:51:52.123Z,101126.59
2022-09-02T07:54:23.799Z,101116.06
2022-09-02T07:56:51.464Z,101124.56
2022-09-02T07:59:19.516Z,101128.06
2022-09-02T08:01:48.374Z,101121.13
2022-09-02T08:04:16.432Z,101116.31
2022-09-02T08:06:43.373Z,101120.84
2022-09-02T08:09:11.413Z,101121.53
2022-09-02T08:11:41.699Z,101113.19
2022-09-02T08:14:12.041Z,101114.75
2022-09-02T08:16:40.219Z,101117.53
2022-09-02T08:19:08.365Z,101118.41
2022-09-02T08:21:35.576Z,101114.66
2022-09-02T08:24:03.066Z,101116.69
2022-09-02T08:26:30.419Z,101116.47
2022-09-02T08:28:57.682Z,101111.13
2022-09-02T08:31:24.673Z,101109.16
2022-09-02T08:33:51.583Z,101105.47
2022-09-02T08:36:19.169Z,101102.56
2022-09-02T08:38:46.097Z,101111.59
2022-09-02T08:41:31.038Z,101100.41
2022-09-02T08:44:01.023Z,101107.56
2022-09-02T08:46:31.591Z,101106.88
2022-09-02T08:49:19.319Z,101109.16
2022-09-02T08:51:53.228Z,101111.91
2022-09-02T08:54:30.484Z,101109.81
2022-09-02T08:56:58.130Z,101107.06
2022-09-02T08:59:28.034Z,101107.06
2022-09-02T09:02:27.570Z,101110.59
2022-09-02T09:05:23.934Z,101102.50
2022-09-02T09:08:23.202Z,101111.88
2022-09-02T09:11:06.021Z,101115.75
2022-09-02T09:13:56.936Z,101117.03
2022-09-02T09:16:43.395Z,101104.28
2022-09-02T09:19:48.722Z,101093.91
2022-09-02T09:22:25.063Z,101102.81
2022-09-02T09:24:52.072Z,101100.19
2022-09-02T09:27:22.318Z,101098.69
2022-09-02T09:29:51.399Z,101086.91
2022-09-02T09:32:33.483Z,101086.28
2022-09-02T09:35:09.997Z,101089.22
2022-09-02T09:37:51.755Z,101089.00
2022-09-02T09:40:21.604Z,101076.72
2022-09-02T09:42:55.349Z,101080.94
2022-09-02T09:45:32.354Z,101069.31
2022-09-02T09:48:17.335Z,101063.38
2022-09-02T09:50:46.696Z,101070.84
2022-09-02T09:53:24.249Z,101068.00
2022-09-02T09:55:54.352Z,101063.34
2022-09-02T09:58:46.429Z,101062.97
2022-09-02T10:01:15.541Z,101045.00
2022-09-02T10:03:49.839Z,101040.56
2022-09-02T10:06:38.592Z,101045.69
2022-09-02T10:09:14.566Z,101043.06
2022-09-02T10:12:05.130Z,101040.81
2022-09-02T10:14:45.067Z,101030.59
2022-09-02T10:17:45.851Z,101032.66
2022-09-02T10:21:04.886Z,101041.13
2022-09-02T10:23:41.495Z,101026.75
2022-09-02T10:26:49.393Z,101021.34
2022-09-02T10:29:49.077Z,101017.13
2022-09-02T10:32:35.990Z,101011.66
2022-09-02T10:35:29.283Z,100999.00
2022-09-02T10:38:42.525Z,101006.81
2022-09-02T10:44:24.481Z,100987.78
2022-09-02T10:47:04.308Z,101001.69
2022-09-02T10:50:08.016Z,101001.06
2022-09-02T10:53:25.962Z,100989.41
2022-09-02T10:55:58.687Z,100986.25
2022-09-02T10:58:40.824Z,100990.06
2022-09-02T11:01:16.234Z,100994.88
2022-09-02T11:04:04.759Z,100978.34
2022-09-02T11:07:01.426Z,100978.06
2022-09-02T11:09:44.214Z,100982.34
2022-09-02T11:12:29.716Z,100978.13
2022-09-02T11:15:24.229Z,100977.13
2022-09-02T11:18:33.430Z,100971.38
2022-09-02T11:21:38.980Z,100971.69
2022-09-02T11:24:20.308Z,100970.84
2022-09-02T11:27:25.982Z,100975.31
2022-09-02T11:30:13.510Z,100956.69
2022-09-02T11:33:14.719Z,100958.78
2022-09-02T11:35:45.031Z,100948.22
2022-09-02T11:38:35.888Z,100950.69
2022-09-02T11:41:37.467Z,100951.50
2022-09-02T11:44:52.158Z,100943.75
2022-09-02T11:47:56.465Z,100937.72
2022-09-02T11:50:39.273Z,100934.56
2022-09-02T11:53:27.613Z,100930.75
2022-09-02T11:56:18.568Z,100934.06
2022-09-02T11:58:51.223Z,100923.78
2022-09-02T12:01:31.689Z,100926.06
2022-09-02T12:07:09.857Z,100921.63
2022-09-02T12:09:56.847Z,100930.31
2022-09-02T12:12:39.245Z,100939.09
2022-09-02T12:15:06.661Z,100935.69
2022-09-02T12:18:14.831Z,100933.56
2022-09-02T12:20:42.654Z,100923.41
2022-09-02T12:23:53.881Z,100915.41
2022-09-02T12:26:25.913Z,100912.47
2022-09-02T12:28:54.976Z,100909.94
2022-09-02T12:31:43.339Z,100909.47
2022-09-02T12:34:25.346Z,100911.19
2022-09-02T12:37:02.695Z,100905.97
2022-09-02T12:39:30.364Z,100907.44
2022-09-02T12:42:12.762Z,100899.50
2022-09-02T12:45:05.588Z,100904.25
2022-09-02T12:48:12.238Z,100904.59
2022-09-02T12:50:56.462Z,100897.22
2022-09-02T12:53:35.284Z,100908.94
2022-09-02T12:56:23.630Z,100888.84
2022-09-02T12:59:02.538Z,100898.53
2022-09-02T13:02:00.320Z,100891.84
2022-09-02T13:04:46.645Z,100879.75
2022-09-02T13:07:50.384Z,100878.00
2022-09-02T13:10:58.126Z,100877.53
2022-09-02T13:13:36.850Z,100873.31
2022-09-02T13:16:28.882Z,100868.16
2022-09-02T13:19:21.749Z,100855.38
2022-09-02T13:22:26.531Z,100861.75
2022-09-02T13:26:03.592Z,100853.19
2022-09-02T13:29:06.623Z,100848.78
2022-09-02T13:31:34.143Z,100849.31
2022-09-02T13:34:08.182Z,100845.19
2022-09-02T13:36:44.391Z,100849.94
2022-09-02T13:39:27.227Z,100833.31
2022-09-02T13:41:55.000Z,100848.03
2022-09-02T13:44:31.731Z,100832.91
2022-09-02T13:47:20.763Z,100830.19
2022-09-02T13:49:51.990Z,100820.56
2022-09-02T13:53:01.114Z,100827.91
2022-09-02T13:55:14.695Z,100822.91
2022-09-02T13:57:50.169Z,100817.13
2022-09-02T14:00:33.341Z,100811.47
2022-09-02T14:03:24.124Z,100816.84
2022-09-02T14:05:53.651Z,100803.97
2022-09-02T14:08:25.970Z,100809.75
2022-09-02T14:10:54.010Z,100805.53
2022-09-02T14:13:22.620Z,100813.63
2022-09-02T14:15:49.620Z,100786.78
2022-09-02T14:18:22.913Z,100800.00
2022-09-02T14:21:00.267Z,100798.63
2022-09-02T14:23:33.415Z,100802.28
2022-09-02T14:26:02.163Z,100798.63
2022-09-02T14:28:38.459Z,100795.91
2022-09-02T14:31:08.644Z,100791.94
2022-09-02T14:33:44.899Z,100789.00
2022-09-02T14:36:17.900Z,100794.63
2022-09-02T14:38:47.823Z,100783.66
2022-09-02T14:41:17.653Z,100789.38
2022-09-02T14:44:12.033Z,100786.81
2022-09-02T14:46:45.739Z,100788.63
2022-09-02T14:49:28.997Z,100785.19
2022-09-02T14:52:04.022Z,100790.41
2022-09-02T14:54:41.445Z,100796.91
2022-09-02T14:57:32.825Z,100803.00
2022-09-02T15:00:06.914Z,100815.63
2022-09-02T15:02:36.231Z,100804.59
2022-09-02T15:05:10.058Z,100801.66
2022-09-02T15:07:37.169Z,100802.47
2022-09-02T15:10:09.174Z,100819.69
2022-09-02T15:12:49.986Z,100806.78
2022-09-02T15:15:17.816Z,100804.91
2022-09-02T15:17:44.756Z,100815.94
2022-09-02T15:20:12.213Z,100800.28
2022-09-02T15:22:39.237Z,100803.25
2022-09-02T15:25:08.588Z,100806.75
2022-09-02T15:27:37.026Z,100806.81
2022-09-02T15:30:06.333Z,100803.78
2022-09-02T15:32:33.276Z,100809.28
2022-09-02T15:35:00.159Z,100821.13
2022-09-02T15:37:27.919Z,100811.75
2022-09-02T15:39:55.272Z,100807.97
2022-09-02T15:42:22.508Z,100818.59
2022-09-02T15:44:49.566Z,100822.56
2022-09-02T15:47:16.498Z,100831.69
2022-09-02T15:49:47.425Z,100823.31
2022-09-02T15:52:14.354Z,100820.34
2022-09-02T15:54:41.771Z,100821.16
2022-09-02T15:57:08.789Z,100820.22
2022-09-02T15:59:35.759Z,100811.31
2022-09-02T16:02:03.509Z,100801.69
2022-09-02T16:04:30.716Z,100808.22
2022-09-02T16:07:01.339Z,100804.88
2022-09-02T16:09:34.132Z,100797.75
2022-09-02T16:12:01.227Z,100788.47
2022-09-02T16:14:28.547Z,100783.94
2022-09-02T16:16:55.963Z,100783.22
2022-09-02T16:19:27.635Z,100784.66
2022-09-02T16:22:00.389Z,100780.06
2022-09-02T16:24:27.439Z,100780.75
2022-09-02T16:26:54.358Z,100786.06
2022-09-02T16:29:21.420Z,100776.34
2022-09-02T16:32:02.145Z,100781.00
2022-09-02T16:34:41.137Z,100770.97
2022-09-02T16:37:08.133Z,100772.81
2022-09-02T16:39:35.671Z,100767.44
2022-09-02T16:42:13.891Z,100762.91
2022-09-02T16:44:41.510Z,100768.66
2022-09-02T16:47:08.564Z,100765.25
2022-09-02T16:49:39.870Z,100767.00
2022-09-02T16:52:07.030Z,100764.66
2022-09-02T16:54:40.073Z,100766.66
2022-09-02T16:57:07.996Z,100761.47
2022-09-02T16:59:35.002Z,100761.69
2022-09-02T17:02:06.244Z,100760.38
2022-09-02T17:04:33.359Z,100766.31
2022-09-02T17:07:00.379Z,100754.84
2022-09-02T17:09:27.272Z,100765.50
2022-09-02T17:11:54.495Z,100759.41
2022-09-02T17:14:21.901Z,100755.69
2022-09-02T17:16:51.698Z,100772.50
2022-09-02T17:19:24.450Z,100761.75
2022-09-02T17:21:55.041Z,100766.03
2022-09-02T17:24:24.975Z,100750.16
2022-09-02T17:26:55.972Z,100764.09
2022-09-02T17:29:48.998Z,100762.41
2022-09-02T17:32:16.768Z,100760.94
2022-09-02T17:34:43.656Z,100763.47
2022-09-02T17:37:10.786Z,100759.34
2022-09-02T17:39:38.066Z,100753.25
2022-09-02T17:42:06.737Z,100761.72
2022-09-02T17:44:37.633Z,100762.34
2022-09-02T17:47:21.146Z,100758.47
2022-09-02T17:49:52.433Z,100753.09
2022-09-02T17:52:47.152Z,100760.28
2022-09-02T17:55:14.905Z,100755.31
2022-09-02T17:58:03.764Z,100772.94
2022-09-02T18:00:39.795Z,100785.13
2022-09-02T18:03:32.796Z,100787.03
2022-09-02T18:06:31.142Z,100776.63
2022-09-02T18:09:11.681Z,100782.34
2022-09-02T18:11:51.710Z,100794.03
2022-09-02T18:14:48.650Z,100791.03
2022-09-02T18:17:40.945Z,100791.75
2022-09-02T18:20:36.100Z,100795.63
2022-09-02T18:23:24.279Z,100793.63
2022-09-02T18:26:03.750Z,100784.59
2022-09-02T18:28:59.306Z,100780.56
2022-09-02T18:31:44.507Z,100781.50
2022-09-02T18:35:01.519Z,100773.63
2022-09-02T18:38:10.825Z,100787.03
2022-09-02T18:41:01.954Z,100792.38
2022-09-02T18:44:36.419Z,100787.84
2022-09-02T18:47:10.626Z,100782.31
2022-09-02T18:49:42.681Z,100788.00
2022-09-02T18:52:24.532Z,100795.44
2022-09-02T18:55:06.706Z,100794.78
2022-09-02T18:58:00.182Z,100792.47
2022-09-02T19:00:28.345Z,100798.00
2022-09-02T19:03:09.848Z,100787.59
2022-09-02T19:05:37.044Z,100791.25
2022-09-02T19:08:32.879Z,100788.72
2022-09-02T19:11:14.976Z,100787.19
2022-09-02T19:14:00.966Z,100787.31
2022-09-02T19:16:38.226Z,100781.31
2022-09-02T19:19:21.032Z,100782.81
2022-09-02T19:22:10.517Z,100786.31
2022-09-02T19:24:50.809Z,100799.59
2022-09-02T19:27:34.762Z,100803.03
2022-09-02T19:30:22.464Z,100806.09
2022-09-02T19:32:57.254Z,100803.13
2022-09-02T19:35:30.307Z,100809.31
2022-09-02T19:37:57.240Z,100793.72
2022-09-02T19:40:29.180Z,100789.22
2022-09-02T19:42:56.168Z,100799.78
2022-09-02T19:45:23.563Z,100798.69
2022-09-02T19:48:06.675Z,100807.84
2022-09-02T19:50:43.344Z,100805.44
2022-09-02T19:53:22.819Z,100807.13
2022-09-02T19:55:51.227Z,100802.75
2022-09-02T19:58:26.950Z,100796.38
2022-09-02T20:01:08.346Z,100804.69
2022-09-02T20:03:35.522Z,100802.84
2022-09-02T20:06:02.946Z,100794.78
2022-09-02T20:08:31.195Z,100803.09
2022-09-02T20:11:05.234Z,100813.75
2022-09-02T20:13:41.334Z,100803.69
2022-09-02T20:16:18.491Z,100801.44
2022-09-02T20:18:46.723Z,100806.13
2022-09-02T20:21:27.587Z,100812.78
2022-09-02T20:23:58.754Z,100802.81
2022-09-02T20:26:59.114Z,100786.53
2022-09-02T20:29:49.571Z,100791.81
2022-09-02T20:32:50.282Z,100791.59
2022-09-02T20:36:02.482Z,100791.81
2022-09-02T20:39:15.977Z,100794.00
2022-09-02T20:42:03.461Z,100777.53
2022-09-02T20:44:34.539Z,100776.09
2022-09-02T20:47:25.200Z,100770.41
2022-09-02T20:50:32.418Z,100772.63
2022-09-02T20:53:24.587Z,100769.16
2022-09-02T20:56:48.523Z,100777.44
2022-09-02T21:00:05.374Z,100769.41
2022-09-02T21:02:43.453Z,100768.25
2022-09-02T21:05:23.983Z,100766.47
2022-09-02T21:08:24.587Z,100759.66
2022-09-02T21:11:01.038Z,100769.09
2022-09-02T21:13:38.668Z,100771.19
2022-09-02T21:16:19.726Z,100765.19
2022-09-02T21:19:12.178Z,100761.63
2022-09-02T21:21:45.073Z,100769.03
2022-09-02T21:24:24.761Z,100763.47
2022-09-02T21:27:11.096Z,100760.34
2022-09-02T21:29:50.106Z,100760.22
2022-09-02T21:32:40.558Z,100762.09
2022-09-02T21:35:38.387Z,100766.97
2022-09-02T21:38:35.923Z,100774.28
2022-09-02T21:41:20.376Z,100767.44
2022-09-02T21:44:01.035Z,100767.75
2022-09-02T21:47:15.449Z,100768.66
2022-09-02T21:50:22.019Z,100759.13
2022-09-02T21:53:16.860Z,100761.28
2022-09-02T21:55:43.745Z,100759.59
2022-09-02T21:58:31.799Z,100751.94
2022-09-02T22:01:09.710Z,100755.25
2022-09-02T22:03:46.579Z,100750.47
2022-09-02T22:06:22.738Z,100759.72
2022-09-02T22:08:55.152Z,100752.81
2022-09-02T22:11:54.907Z,100746.03
2022-09-02T22:14:44.801Z,100744.34
2022-09-02T22:17:37.116Z,100747.78
2022-09-02T22:20:07.524Z,100759.09
2022-09-02T22:22:44.769Z,100759.28
2022-09-02T22:25:17.653Z,100752.47
2022-09-02T22:28:04.658Z,100756.84
2022-09-02T22:30:33.525Z,100756.28
2022-09-02T22:33:14.690Z,100757.91
2022-09-02T22:36:22.585Z,100740.34
2022-09-02T22:38:53.376Z,100748.03
2022-09-02T22:41:33.132Z,100752.97
2022-09-02T22:44:22.859Z,100759.34
2022-09-02T22:47:24.342Z,100770.09
2022-09-02T22:50:15.227Z,100760.09
2022-09-02T22:52:46.277Z,100757.78
2022-09-02T22:55:38.252Z,100756.50
2022-09-02T22:58:41.166Z,100754.53
2022-09-02T23:01:25.805Z,100746.63
2022-09-02T23:04:38.786Z,100745.00
2022-09-02T23:07:06.551Z,100747.91
2022-09-02T23:09:37.813Z,100745.94
2022-09-02T23:12:25.097Z,100741.09
2022-09-02T23:15:24.735Z,100732.13
2022-09-02T23:18:01.507Z,100733.41
2022-09-02T23:20:49.615Z,100734.78
2022-09-02T23:23:52.428Z,100743.50
2022-09-02T23:26:51.095Z,100735.22
2022-09-02T23:29:28.702Z,100733.41
2022-09-02T23:32:43.602Z,100725.16
2022-09-02T23:35:49.126Z,100719.56
2022-09-02T23:38:47.750Z,100715.28
2022-09-02T23:41:15.266Z,100717.84
2022-09-02T23:43:43.729Z,100715.69
2022-09-02T23:46:50.572Z,100709.91
2022-09-02T23:49:26.735Z,100713.19
2022-09-02T23:52:15.062Z,100714.81
2022-09-02T23:55:16.976Z,100702.47
2022-09-02T23:58:25.751Z,100717.72
